createdAt,value
2023-04-10T00:01:24.771Z,8.45
2023-04-10T00:03:54.582Z,8.46
2023-04-10T00:06:24.828Z,8.50
2023-04-10T00:08:54.134Z,8.57
2023-04-10T00:11:23.472Z,8.54
2023-04-10T00:13:53.041Z,8.47
2023-04-10T00:16:22.659Z,8.40
2023-04-10T00:18:52.218Z,8.41
2023-04-10T00:21:21.493Z,8.33
2023-04-10T00:23:50.787Z,8.35
2023-04-10T00:26:21.191Z,8.32
2023-04-10T00:28:50.732Z,8.24
2023-04-10T00:31:20.323Z,8.24
2023-04-10T00:33:49.822Z,8.29
2023-04-10T00:36:20.555Z,8.24
2023-04-10T00:38:50.042Z,8.30
2023-04-10T00:41:19.339Z,8.30
2023-04-10T00:43:48.963Z,8.34
2023-04-10T00:46:18.517Z,8.33
2023-04-10T00:48:48.123Z,8.29
2023-04-10T00:51:19.314Z,8.30
2023-04-10T00:53:52.332Z,8.24
2023-04-10T00:56:22.678Z,8.23
2023-04-10T00:58:52.139Z,8.29
2023-04-10T01:01:21.462Z,8.32
2023-04-10T01:03:51.207Z,8.34
2023-04-10T01:06:23.798Z,8.32
2023-04-10T01:09:20.485Z,8.30
2023-04-10T01:12:11.093Z,8.36
2023-04-10T01:14:49.228Z,8.38
2023-04-10T01:17:34.576Z,8.42
2023-04-10T01:20:06.476Z,8.39
2023-04-10T01:22:51.849Z,8.48
2023-04-10T01:25:24.274Z,8.46
2023-04-10T01:28:22.689Z,8.42
2023-04-10T01:30:57.977Z,8.37
2023-04-10T01:33:31.680Z,8.40
2023-04-10T01:36:03.125Z,8.48
2023-04-10T01:38:33.297Z,8.48
2023-04-10T01:41:02.926Z,8.45
2023-04-10T01:43:33.941Z,8.52
2023-04-10T01:46:04.596Z,8.57
2023-04-10T01:48:34.142Z,8.56
2023-04-10T01:51:05.114Z,8.61
2023-04-10T01:53:35.855Z,8.63
2023-04-10T01:56:06.625Z,8.63
2023-04-10T01:58:38.086Z,8.64
2023-04-10T02:01:10.306Z,8.76
2023-04-10T02:03:39.471Z,8.75
2023-04-10T02:06:31.977Z,8.74
2023-04-10T02:09:13.850Z,8.69
2023-04-10T02:11:51.999Z,8.71
2023-04-10T02:14:23.728Z,8.66
2023-04-10T02:16:54.784Z,8.79
2023-04-10T02:19:26.068Z,8.74
2023-04-10T02:21:55.588Z,8.67
2023-04-10T02:24:25.312Z,8.69
2023-04-10T02:26:54.921Z,8.62
2023-04-10T02:29:24.880Z,8.70
2023-04-10T02:31:54.673Z,8.71
2023-04-10T02:34:23.965Z,8.69
2023-04-10T02:36:53.825Z,8.65
2023-04-10T02:39:23.789Z,8.66
2023-04-10T02:41:53.631Z,8.64
2023-04-10T02:44:22.990Z,8.69
2023-04-10T02:46:52.304Z,8.66
2023-04-10T02:49:22.180Z,8.55
2023-04-10T02:51:51.434Z,8.61
2023-04-10T02:54:21.642Z,8.60
2023-04-10T02:56:51.097Z,8.65
2023-04-10T02:59:21.984Z,8.64
2023-04-10T03:01:53.543Z,8.54
2023-04-10T03:04:23.280Z,8.52
2023-04-10T03:06:52.950Z,8.43
2023-04-10T03:09:22.546Z,8.39
2023-04-10T03:11:52.052Z,8.33
2023-04-10T03:14:21.599Z,8.26
2023-04-10T03:16:50.915Z,8.27
2023-04-10T03:19:20.352Z,8.23
2023-04-10T03:21:49.867Z,8.23
2023-04-10T03:24:20.841Z,8.24
2023-04-10T03:26:50.458Z,8.21
2023-04-10T03:29:20.019Z,8.16
2023-04-10T03:31:49.338Z,8.08
2023-04-10T03:34:18.688Z,8.14
2023-04-10T03:36:48.393Z,8.08
2023-04-10T03:39:17.749Z,8.04
2023-04-10T03:41:47.020Z,8.07
2023-04-10T03:44:16.975Z,8.03
2023-04-10T03:46:46.605Z,8.01
2023-04-10T03:49:16.366Z,7.95
2023-04-10T03:51:46.283Z,7.92
2023-04-10T03:54:15.707Z,7.92
2023-04-10T03:56:45.350Z,7.87
2023-04-10T03:59:14.832Z,7.85
2023-04-10T04:01:44.929Z,7.85
2023-04-10T04:04:14.675Z,7.78
2023-04-10T04:06:55.433Z,7.74
2023-04-10T04:09:32.203Z,7.76
2023-04-10T04:12:15.439Z,7.68
2023-04-10T04:15:02.229Z,7.67
2023-04-10T04:17:49.575Z,7.64
2023-04-10T04:20:37.141Z,7.64
2023-04-10T04:23:20.421Z,7.70
2023-04-10T04:25:52.818Z,7.71
2023-04-10T04:28:24.679Z,7.61
2023-04-10T04:31:07.962Z,7.56
2023-04-10T04:33:54.157Z,7.55
2023-04-10T04:36:29.190Z,7.56
2023-04-10T04:39:00.259Z,7.53
2023-04-10T04:41:37.214Z,7.47
2023-04-10T04:44:14.238Z,7.48
2023-04-10T04:46:54.580Z,7.38
2023-04-10T04:49:25.580Z,7.28
2023-04-10T04:52:13.046Z,7.26
2023-04-10T04:54:59.478Z,7.31
2023-04-10T04:57:39.896Z,7.18
2023-04-10T05:00:11.994Z,7.23
2023-04-10T05:02:58.180Z,7.25
2023-04-10T05:05:32.345Z,7.29
2023-04-10T05:08:03.366Z,7.26
2023-04-10T05:10:38.909Z,7.29
2023-04-10T05:13:13.180Z,7.34
2023-04-10T05:15:44.734Z,7.36
2023-04-10T05:18:23.921Z,7.36
2023-04-10T05:21:01.270Z,7.35
2023-04-10T05:23:48.362Z,7.33
2023-04-10T05:26:19.383Z,7.31
2023-04-10T05:29:06.896Z,7.34
2023-04-10T05:31:41.031Z,7.38
2023-04-10T05:34:11.988Z,7.39
2023-04-10T05:36:42.977Z,7.42
2023-04-10T05:39:26.043Z,7.41
2023-04-10T05:41:59.771Z,7.47
2023-04-10T05:44:33.463Z,7.46
2023-04-10T05:47:13.370Z,7.50
2023-04-10T05:49:44.434Z,7.51
2023-04-10T05:52:31.063Z,7.54
2023-04-10T05:55:02.532Z,7.56
2023-04-10T05:57:51.798Z,7.58
2023-04-10T06:00:34.759Z,7.60
2023-04-10T06:03:22.778Z,7.70
2023-04-10T06:05:54.212Z,7.72
2023-04-10T06:08:23.832Z,7.76
2023-04-10T06:10:54.131Z,7.77
2023-04-10T06:13:24.340Z,7.84
2023-04-10T06:15:55.384Z,7.84
2023-04-10T06:18:25.595Z,7.92
2023-04-10T06:20:56.672Z,7.96
2023-04-10T06:23:26.713Z,7.68
2023-04-10T06:25:58.860Z,7.92
2023-04-10T06:28:28.418Z,8.00
2023-04-10T06:31:01.223Z,7.96
2023-04-10T06:33:32.724Z,8.01
2023-04-10T06:36:02.428Z,8.10
2023-04-10T06:38:35.100Z,8.10
2023-04-10T06:41:06.734Z,8.09
2023-04-10T06:43:38.136Z,8.21
2023-04-10T06:46:07.972Z,8.23
2023-04-10T06:48:37.222Z,8.25
2023-04-10T06:51:07.210Z,8.30
2023-04-10T06:53:36.461Z,8.35
2023-04-10T06:56:07.243Z,8.32
2023-04-10T06:58:36.507Z,8.36
2023-04-10T07:01:06.397Z,8.36
2023-04-10T07:03:35.782Z,8.38
2023-04-10T07:06:05.727Z,8.42
2023-04-10T07:08:35.075Z,8.48
2023-04-10T07:11:04.705Z,8.65
2023-04-10T07:13:35.654Z,8.83
2023-04-10T07:16:05.393Z,8.88
2023-04-10T07:18:35.823Z,8.95
2023-04-10T07:21:12.015Z,9.13
2023-04-10T07:23:41.294Z,9.35
2023-04-10T07:26:10.931Z,9.40
2023-04-10T07:28:40.282Z,9.68
2023-04-10T07:31:10.722Z,9.90
2023-04-10T07:33:40.959Z,10.12
2023-04-10T07:36:10.719Z,10.37
2023-04-10T07:38:40.104Z,10.51
2023-04-10T07:41:11.279Z,10.39
2023-04-10T07:43:41.681Z,10.27
2023-04-10T07:46:11.215Z,10.13
2023-04-10T07:48:41.299Z,10.35
2023-04-10T07:51:10.917Z,10.51
2023-04-10T07:53:40.547Z,10.50
2023-04-10T07:56:12.142Z,10.40
2023-04-10T07:58:41.676Z,10.39
2023-04-10T08:01:11.121Z,10.58
2023-04-10T08:03:41.988Z,10.64
2023-04-10T08:06:12.486Z,10.75
2023-04-10T08:08:42.942Z,10.95
2023-04-10T08:11:27.354Z,11.04
2023-04-10T08:13:59.370Z,11.13
2023-04-10T08:16:31.699Z,11.07
2023-04-10T08:19:02.056Z,11.06
2023-04-10T08:21:32.424Z,10.99
2023-04-10T08:24:03.627Z,10.92
2023-04-10T08:26:32.980Z,11.09
2023-04-10T08:29:02.566Z,11.10
2023-04-10T08:31:32.334Z,11.01
2023-04-10T08:34:01.756Z,10.99
2023-04-10T08:36:31.565Z,11.04
2023-04-10T08:39:00.858Z,10.92
2023-04-10T08:41:30.644Z,10.95
2023-04-10T08:43:59.954Z,10.99
2023-04-10T08:46:30.500Z,11.28
2023-04-10T08:49:05.315Z,11.34
2023-04-10T08:51:50.033Z,11.47
2023-04-10T08:54:27.227Z,11.62
2023-04-10T08:56:58.922Z,11.46
2023-04-10T08:59:30.862Z,11.54
2023-04-10T09:02:01.349Z,11.61
2023-04-10T09:04:31.756Z,11.74
2023-04-10T09:07:02.106Z,11.59
2023-04-10T09:09:34.262Z,11.72
2023-04-10T09:12:04.475Z,11.92
2023-04-10T09:14:38.165Z,12.05
2023-04-10T09:17:22.224Z,12.00
2023-04-10T09:19:56.608Z,12.04
2023-04-10T09:22:33.709Z,12.11
2023-04-10T09:25:05.633Z,12.16
2023-04-10T09:27:37.207Z,12.23
2023-04-10T09:30:08.414Z,12.41
2023-04-10T09:32:47.308Z,12.44
2023-04-10T09:35:17.179Z,12.55
2023-04-10T09:37:47.667Z,12.52
2023-04-10T09:40:27.415Z,12.73
2023-04-10T09:42:58.054Z,12.86
2023-04-10T09:45:27.312Z,12.96
2023-04-10T09:48:05.366Z,13.11
2023-04-10T09:50:40.454Z,13.42
2023-04-10T09:53:15.269Z,13.44
2023-04-10T09:55:45.210Z,13.33
2023-04-10T09:58:15.031Z,13.41
2023-04-10T10:00:48.923Z,13.24
2023-04-10T10:03:21.283Z,13.45
2023-04-10T10:05:52.648Z,13.53
2023-04-10T10:08:23.855Z,13.37
2023-04-10T10:10:55.468Z,13.41
2023-04-10T10:13:29.578Z,13.33
2023-04-10T10:16:18.906Z,13.37
2023-04-10T10:19:24.672Z,13.53
2023-04-10T10:21:54.884Z,13.69
2023-04-10T10:24:26.301Z,13.76
2023-04-10T10:26:57.361Z,14.02
2023-04-10T10:29:26.724Z,14.03
2023-04-10T10:31:56.684Z,14.29
2023-04-10T10:34:26.020Z,14.88
2023-04-10T10:36:55.776Z,15.13
2023-04-10T10:39:48.222Z,15.26
2023-04-10T10:42:24.103Z,14.90
2023-04-10T10:45:17.950Z,15.07
2023-04-10T10:47:52.828Z,14.93
2023-04-10T10:50:25.670Z,14.84
2023-04-10T10:52:56.758Z,15.22
2023-04-10T10:55:31.508Z,15.15
2023-04-10T10:58:02.768Z,15.29
2023-04-10T11:00:55.013Z,15.67
2023-04-10T11:03:27.830Z,15.23
2023-04-10T11:06:07.352Z,15.40
2023-04-10T11:08:45.907Z,15.45
2023-04-10T11:11:18.098Z,15.66
2023-04-10T11:13:56.768Z,15.97
2023-04-10T11:16:36.850Z,15.98
2023-04-10T11:19:13.907Z,15.84
2023-04-10T11:21:59.374Z,15.52
2023-04-10T11:24:30.598Z,15.40
2023-04-10T11:26:59.897Z,15.93
2023-04-10T11:29:33.474Z,16.41
2023-04-10T11:32:05.878Z,16.46
2023-04-10T11:34:35.425Z,16.92
2023-04-10T11:37:04.619Z,16.92
2023-04-10T11:39:34.094Z,16.62
2023-04-10T11:42:04.898Z,16.50
2023-04-10T11:44:39.585Z,16.80
2023-04-10T11:47:12.342Z,16.77
2023-04-10T11:49:42.195Z,16.88
2023-04-10T11:52:11.881Z,16.85
2023-04-10T11:54:44.325Z,16.25
2023-04-10T11:57:13.605Z,15.97
2023-04-10T11:59:43.289Z,16.11
2023-04-10T12:02:17.724Z,15.84
2023-04-10T12:04:47.233Z,15.60
2023-04-10T12:07:17.216Z,15.40
2023-04-10T12:09:46.689Z,15.25
2023-04-10T12:12:16.633Z,15.22
2023-04-10T12:14:46.651Z,15.20
2023-04-10T12:17:16.079Z,15.21
2023-04-10T12:19:45.390Z,15.18
2023-04-10T12:22:14.759Z,15.14
2023-04-10T12:24:51.740Z,15.06
2023-04-10T12:27:26.769Z,15.03
2023-04-10T12:29:58.036Z,14.90
2023-04-10T12:32:30.428Z,14.81
2023-04-10T12:35:03.616Z,14.88
2023-04-10T12:37:52.631Z,14.78
2023-04-10T12:40:21.963Z,14.74
2023-04-10T12:42:51.428Z,14.66
2023-04-10T12:45:21.025Z,14.79
2023-04-10T12:47:52.730Z,14.77
2023-04-10T12:50:22.466Z,14.76
2023-04-10T12:53:11.612Z,14.72
2023-04-10T12:55:42.388Z,14.65
2023-04-10T12:58:24.550Z,14.50
2023-04-10T13:00:53.777Z,14.33
2023-04-10T13:03:23.269Z,13.94
2023-04-10T13:05:53.613Z,13.61
2023-04-10T13:08:24.047Z,13.40
2023-04-10T13:10:54.941Z,13.33
2023-04-10T13:13:24.778Z,13.43
2023-04-10T13:15:55.566Z,13.51
2023-04-10T13:18:24.956Z,13.58
2023-04-10T13:20:54.234Z,13.55
2023-04-10T13:23:23.655Z,13.47
2023-04-10T13:25:53.684Z,13.37
2023-04-10T13:28:24.885Z,13.25
2023-04-10T13:30:54.153Z,13.21
2023-04-10T13:33:25.210Z,13.12
2023-04-10T13:35:54.546Z,13.07
2023-04-10T13:38:24.129Z,12.97
2023-04-10T13:40:54.417Z,12.97
2023-04-10T13:43:24.182Z,12.94
2023-04-10T13:45:53.437Z,12.91
2023-04-10T13:48:29.988Z,12.95
2023-04-10T13:50:54.280Z,12.87
2023-04-10T13:53:24.026Z,12.84
2023-04-10T13:55:53.278Z,12.79
2023-04-10T13:58:22.623Z,12.68
2023-04-10T14:00:52.205Z,12.66
2023-04-10T14:03:21.676Z,12.59
2023-04-10T14:05:52.685Z,12.51
2023-04-10T14:08:22.114Z,12.46
2023-04-10T14:10:51.693Z,12.38
2023-04-10T14:13:21.336Z,12.29
2023-04-10T14:15:52.634Z,12.19
2023-04-10T14:18:21.929Z,12.03
2023-04-10T14:20:51.310Z,11.84
2023-04-10T14:23:22.288Z,11.67
2023-04-10T14:25:52.059Z,11.61
2023-04-10T14:28:21.309Z,11.47
2023-04-10T14:30:52.337Z,11.35
2023-04-10T14:33:21.637Z,11.30
2023-04-10T14:35:51.279Z,11.27
2023-04-10T14:38:20.753Z,11.24
2023-04-10T14:40:50.698Z,11.23
2023-04-10T14:43:20.136Z,11.27
2023-04-10T14:45:49.508Z,11.41
2023-04-10T14:48:21.029Z,11.47
2023-04-10T14:50:50.402Z,11.55
2023-04-10T14:53:21.666Z,11.66
2023-04-10T14:55:51.215Z,11.74
2023-04-10T14:58:20.830Z,11.85
2023-04-10T15:00:50.990Z,11.92
2023-04-10T15:03:22.317Z,11.97
2023-04-10T15:05:53.244Z,11.96
2023-04-10T15:08:22.783Z,11.89
2023-04-10T15:10:53.044Z,11.76
2023-04-10T15:13:23.230Z,11.68
2023-04-10T15:15:52.820Z,11.68
2023-04-10T15:18:22.122Z,11.69
2023-04-10T15:20:52.610Z,11.69
2023-04-10T15:23:22.208Z,11.61
2023-04-10T15:25:51.964Z,11.58
2023-04-10T15:28:21.743Z,11.59
2023-04-10T15:30:51.876Z,11.56
2023-04-10T15:33:21.786Z,11.55
2023-04-10T15:35:52.892Z,11.41
2023-04-10T15:38:22.130Z,11.31
2023-04-10T15:40:51.617Z,11.21
2023-04-10T15:43:20.885Z,11.04
2023-04-10T15:45:50.415Z,10.93
2023-04-10T15:48:21.332Z,10.86
2023-04-10T15:50:50.649Z,10.83
2023-04-10T15:53:19.907Z,10.77
2023-04-10T15:55:49.280Z,10.78
2023-04-10T15:58:19.034Z,10.70
2023-04-10T16:00:48.342Z,10.70
2023-04-10T16:03:17.687Z,10.70
2023-04-10T16:05:47.225Z,10.63
2023-04-10T16:08:16.686Z,10.60
2023-04-10T16:10:45.990Z,10.57
2023-04-10T16:13:15.681Z,10.58
2023-04-10T16:15:46.637Z,10.55
2023-04-10T16:18:15.936Z,10.54
2023-04-10T16:20:45.529Z,10.49
2023-04-10T16:23:15.137Z,10.52
2023-04-10T16:25:44.428Z,10.41
2023-04-10T16:28:13.798Z,10.34
2023-04-10T16:30:43.058Z,10.31
2023-04-10T16:33:12.566Z,10.26
2023-04-10T16:35:41.979Z,10.20
2023-04-10T16:38:11.673Z,10.20
2023-04-10T16:40:40.943Z,10.18
2023-04-10T16:43:11.135Z,10.20
2023-04-10T16:45:40.949Z,10.22
2023-04-10T16:48:10.477Z,10.19
2023-04-10T16:50:39.782Z,10.17
2023-04-10T16:53:09.180Z,10.17
2023-04-10T16:55:38.720Z,10.15
2023-04-10T16:58:08.216Z,10.14
2023-04-10T17:00:37.862Z,10.10
2023-04-10T17:03:07.736Z,10.11
2023-04-10T17:05:37.476Z,10.10
2023-04-10T17:08:07.133Z,10.08
2023-04-10T17:10:36.429Z,10.07
2023-04-10T17:13:06.017Z,10.05
2023-04-10T17:15:35.328Z,10.08
2023-04-10T17:18:04.721Z,10.11
2023-04-10T17:20:38.344Z,10.11
2023-04-10T17:23:07.899Z,10.11
2023-04-10T17:25:41.508Z,10.14
2023-04-10T17:28:11.278Z,10.17
2023-04-10T17:30:40.789Z,10.15
2023-04-10T17:33:10.433Z,10.09
2023-04-10T17:35:39.727Z,10.08
2023-04-10T17:38:09.053Z,10.07
2023-04-10T17:40:40.165Z,10.05
2023-04-10T17:43:09.800Z,10.01
2023-04-10T17:45:39.840Z,10.01
2023-04-10T17:48:09.275Z,9.99
2023-04-10T17:50:39.021Z,9.98
2023-04-10T17:53:08.537Z,9.94
2023-04-10T17:55:41.196Z,9.95
2023-04-10T17:58:09.848Z,9.91
2023-04-10T18:00:44.129Z,9.89
2023-04-10T18:03:13.499Z,9.90
2023-04-10T18:05:43.215Z,9.89
2023-04-10T18:08:13.020Z,9.91
2023-04-10T18:10:42.660Z,9.86
2023-04-10T18:13:12.574Z,9.89
2023-04-10T18:15:41.948Z,9.85
2023-04-10T18:18:11.485Z,9.87
2023-04-10T18:20:40.738Z,9.85
2023-04-10T18:23:10.111Z,9.84
2023-04-10T18:25:39.397Z,9.83
2023-04-10T18:28:15.359Z,9.73
2023-04-10T18:30:40.639Z,9.76
2023-04-10T18:33:11.426Z,9.76
2023-04-10T18:35:41.227Z,9.75
2023-04-10T18:38:10.898Z,9.75
2023-04-10T18:40:40.297Z,9.74
2023-04-10T18:43:10.107Z,9.73
2023-04-10T18:45:40.557Z,9.74
2023-04-10T18:48:10.328Z,9.77
2023-04-10T18:50:39.965Z,9.65
2023-04-10T18:53:09.792Z,9.67
2023-04-10T18:55:39.527Z,9.62
2023-04-10T18:58:10.651Z,9.59
2023-04-10T19:00:40.444Z,9.66
2023-04-10T19:03:10.132Z,9.67
2023-04-10T19:05:39.753Z,9.63
2023-04-10T19:08:09.253Z,9.60
2023-04-10T19:10:38.985Z,9.62
2023-04-10T19:13:11.678Z,9.62
2023-04-10T19:15:46.480Z,9.60
2023-04-10T19:18:16.619Z,9.55
2023-04-10T19:20:49.755Z,9.56
2023-04-10T19:23:18.277Z,9.49
2023-04-10T19:25:49.893Z,9.43
2023-04-10T19:28:19.298Z,9.51
2023-04-10T19:30:48.860Z,9.50
2023-04-10T19:33:19.735Z,9.53
2023-04-10T19:35:49.054Z,9.48
2023-04-10T19:38:18.973Z,9.41
2023-04-10T19:40:48.253Z,9.41
2023-04-10T19:43:17.672Z,9.37
2023-04-10T19:45:46.999Z,9.28
2023-04-10T19:48:16.778Z,9.33
2023-04-10T19:50:46.060Z,9.26
2023-04-10T19:53:16.008Z,9.28
2023-04-10T19:55:46.946Z,9.14
2023-04-10T19:58:30.423Z,9.16
2023-04-10T20:00:48.229Z,9.10
2023-04-10T20:03:21.859Z,9.12
2023-04-10T20:05:51.329Z,9.12
2023-04-10T20:08:21.270Z,9.06
2023-04-10T20:10:50.594Z,8.99
2023-04-10T20:13:20.421Z,8.89
2023-04-10T20:15:50.347Z,8.94
2023-04-10T20:18:19.775Z,8.89
2023-04-10T20:20:49.078Z,8.90
2023-04-10T20:23:19.111Z,8.86
2023-04-10T20:25:48.456Z,8.72
2023-04-10T20:28:18.128Z,8.70
2023-04-10T20:30:47.655Z,8.65
2023-04-10T20:33:17.118Z,8.63
2023-04-10T20:35:46.490Z,8.67
2023-04-10T20:38:16.089Z,8.60
2023-04-10T20:40:45.443Z,8.54
2023-04-10T20:43:15.092Z,8.47
2023-04-10T20:45:44.452Z,8.50
2023-04-10T20:48:15.385Z,8.53
2023-04-10T20:50:46.530Z,8.56
2023-04-10T20:53:16.028Z,8.54
2023-04-10T20:55:45.596Z,8.22
2023-04-10T20:58:15.574Z,8.49
2023-04-10T21:00:45.452Z,8.49
2023-04-10T21:03:14.960Z,8.51
2023-04-10T21:05:44.559Z,8.56
2023-04-10T21:08:14.957Z,8.45
2023-04-10T21:10:44.399Z,8.51
2023-04-10T21:13:15.640Z,8.56
2023-04-10T21:15:45.036Z,8.55
2023-04-10T21:18:14.358Z,8.52
2023-04-10T21:20:44.686Z,8.41
2023-04-10T21:23:14.050Z,8.53
2023-04-10T21:25:46.696Z,8.53
2023-04-10T21:28:15.568Z,8.50
2023-04-10T21:30:45.134Z,8.56
2023-04-10T21:33:15.322Z,8.59
2023-04-10T21:35:44.917Z,8.62
2023-04-10T21:38:14.750Z,8.72
2023-04-10T21:40:52.225Z,8.70
2023-04-10T21:43:22.042Z,8.77
2023-04-10T21:45:51.612Z,8.86
2023-04-10T21:48:21.121Z,8.94
2023-04-10T21:50:51.479Z,9.01
2023-04-10T21:53:20.785Z,9.06
2023-04-10T21:55:50.769Z,9.12
2023-04-10T21:58:20.042Z,9.16
2023-04-10T22:00:51.866Z,9.20
2023-04-10T22:03:22.143Z,9.16
2023-04-10T22:05:51.675Z,9.19
2023-04-10T22:08:22.047Z,9.29
2023-04-10T22:10:52.351Z,9.24
2023-04-10T22:13:30.272Z,9.24
2023-04-10T22:15:53.067Z,9.21
2023-04-10T22:18:22.336Z,9.20
2023-04-10T22:20:52.100Z,9.16
2023-04-10T22:23:21.981Z,9.11
2023-04-10T22:25:51.579Z,9.08
2023-04-10T22:28:20.835Z,9.14
2023-04-10T22:30:50.216Z,9.13
2023-04-10T22:33:19.667Z,9.07
2023-04-10T22:35:48.933Z,9.02
2023-04-10T22:38:18.263Z,8.99
2023-04-10T22:40:47.540Z,8.96
2023-04-10T22:43:16.892Z,8.96
2023-04-10T22:45:46.357Z,8.97
2023-04-10T22:48:15.845Z,8.97
2023-04-10T22:50:45.750Z,8.92
2023-04-10T22:53:15.109Z,8.90
2023-04-10T22:55:44.457Z,8.85
2023-04-10T22:58:13.748Z,8.84
2023-04-10T23:00:43.034Z,8.87
2023-04-10T23:03:12.455Z,8.86
2023-04-10T23:05:42.116Z,8.88
2023-04-10T23:08:11.557Z,8.94
2023-04-10T23:10:41.060Z,8.90
2023-04-10T23:13:10.426Z,8.66
2023-04-10T23:15:39.777Z,8.62
2023-04-10T23:18:09.204Z,8.57
2023-04-10T23:20:38.494Z,8.53
2023-04-10T23:23:08.182Z,8.56
2023-04-10T23:25:38.295Z,8.63
2023-04-10T23:28:07.703Z,8.58
2023-04-10T23:30:42.575Z,8.52
2023-04-10T23:33:11.945Z,8.42
2023-04-10T23:35:41.361Z,8.33
2023-04-10T23:38:11.188Z,8.38
2023-04-10T23:40:40.690Z,8.33
2023-04-10T23:43:09.988Z,8.30
2023-04-10T23:45:39.400Z,8.28
2023-04-10T23:48:11.714Z,8.23
2023-04-10T23:50:41.362Z,8.22
2023-04-10T23:53:11.496Z,8.20
2023-04-10T23:55:41.716Z,8.15
2023-04-10T23:58:11.131Z,8.13
